sensor_id;sensor_type;location;lat;lon;timestamp;P1;durP1;ratioP1;P2;durP2;ratioP2
24483;SDS011;12643;51.620;7.548;2023-02-02T00:01:45;12.43;;;2.83;;
24483;SDS011;12643;51.620;7.548;2023-02-02T00:04:16;9.63;;;1.83;;
24483;SDS011;12643;51.620;7.548;2023-02-02T00:06:47;8.85;;;2.03;;
24483;SDS011;12643;51.620;7.548;2023-02-02T00:09:17;15.30;;;2.28;;
24483;SDS011;12643;51.620;7.548;2023-02-02T00:11:47;11.85;;;2.05;;
24483;SDS011;12643;51.620;7.548;2023-02-02T00:14:22;17.20;;;2.58;;
24483;SDS011;12643;51.620;7.548;2023-02-02T00:16:51;12.70;;;2.53;;
24483;SDS011;12643;51.620;7.548;2023-02-02T00:19:21;9.90;;;2.20;;
24483;SDS011;12643;51.620;7.548;2023-02-02T00:21:52;13.65;;;3.13;;
24483;SDS011;12643;51.620;7.548;2023-02-02T00:24:20;7.35;;;2.03;;
24483;SDS011;12643;51.620;7.548;2023-02-02T00:26:49;11.55;;;2.90;;
24483;SDS011;12643;51.620;7.548;2023-02-02T00:29:19;13.05;;;2.55;;
24483;SDS011;12643;51.620;7.548;2023-02-02T00:31:48;10.13;;;2.30;;
24483;SDS011;12643;51.620;7.548;2023-02-02T00:34:18;11.85;;;2.30;;
24483;SDS011;12643;51.620;7.548;2023-02-02T00:36:47;17.42;;;2.25;;
24483;SDS011;12643;51.620;7.548;2023-02-02T00:39:18;11.40;;;2.20;;
24483;SDS011;12643;51.620;7.548;2023-02-02T00:44:14;13.57;;;2.17;;
24483;SDS011;12643;51.620;7.548;2023-02-02T00:47:00;17.23;;;2.63;;
24483;SDS011;12643;51.620;7.548;2023-02-02T00:49:28;5.05;;;1.70;;
24483;SDS011;12643;51.620;7.548;2023-02-02T00:51:56;10.85;;;2.30;;
24483;SDS011;12643;51.620;7.548;2023-02-02T00:54:26;15.65;;;2.75;;
24483;SDS011;12643;51.620;7.548;2023-02-02T00:56:54;21.73;;;2.75;;
24483;SDS011;12643;51.620;7.548;2023-02-02T00:59:22;12.20;;;2.97;;
24483;SDS011;12643;51.620;7.548;2023-02-02T01:01:50;12.93;;;2.40;;
24483;SDS011;12643;51.620;7.548;2023-02-02T01:04:18;15.18;;;3.28;;
24483;SDS011;12643;51.620;7.548;2023-02-02T01:06:46;16.23;;;3.65;;
24483;SDS011;12643;51.620;7.548;2023-02-02T01:09:15;21.52;;;4.05;;
24483;SDS011;12643;51.620;7.548;2023-02-02T01:11:44;19.77;;;3.15;;
24483;SDS011;12643;51.620;7.548;2023-02-02T01:14:12;16.42;;;4.07;;
24483;SDS011;12643;51.620;7.548;2023-02-02T01:16:40;19.80;;;4.25;;
24483;SDS011;12643;51.620;7.548;2023-02-02T01:19:08;18.98;;;5.63;;
24483;SDS011;12643;51.620;7.548;2023-02-02T01:21:40;19.58;;;4.15;;
24483;SDS011;12643;51.620;7.548;2023-02-02T01:24:08;16.73;;;3.97;;
24483;SDS011;12643;51.620;7.548;2023-02-02T01:26:36;22.55;;;5.07;;
24483;SDS011;12643;51.620;7.548;2023-02-02T01:29:06;14.95;;;4.25;;
24483;SDS011;12643;51.620;7.548;2023-02-02T01:31:34;16.48;;;5.28;;
24483;SDS011;12643;51.620;7.548;2023-02-02T01:34:02;19.75;;;4.97;;
24483;SDS011;12643;51.620;7.548;2023-02-02T01:36:32;17.70;;;5.20;;
24483;SDS011;12643;51.620;7.548;2023-02-02T01:39:00;17.63;;;4.20;;
24483;SDS011;12643;51.620;7.548;2023-02-02T01:41:28;16.17;;;4.47;;
24483;SDS011;12643;51.620;7.548;2023-02-02T01:43:57;13.23;;;4.53;;
24483;SDS011;12643;51.620;7.548;2023-02-02T01:46:30;15.50;;;5.00;;
24483;SDS011;12643;51.620;7.548;2023-02-02T01:49:01;21.17;;;4.70;;
24483;SDS011;12643;51.620;7.548;2023-02-02T01:51:34;18.65;;;5.10;;
24483;SDS011;12643;51.620;7.548;2023-02-02T01:54:09;17.67;;;4.60;;
24483;SDS011;12643;51.620;7.548;2023-02-02T01:56:41;10.40;;;4.53;;
24483;SDS011;12643;51.620;7.548;2023-02-02T01:59:13;13.80;;;4.72;;
24483;SDS011;12643;51.620;7.548;2023-02-02T02:01:43;17.17;;;4.70;;
24483;SDS011;12643;51.620;7.548;2023-02-02T02:06:41;24.95;;;5.18;;
24483;SDS011;12643;51.620;7.548;2023-02-02T02:09:09;22.10;;;5.38;;
24483;SDS011;12643;51.620;7.548;2023-02-02T02:11:39;16.60;;;5.57;;
24483;SDS011;12643;51.620;7.548;2023-02-02T02:14:08;15.63;;;5.03;;
24483;SDS011;12643;51.620;7.548;2023-02-02T02:20:09;20.50;;;6.63;;
24483;SDS011;12643;51.620;7.548;2023-02-02T02:29:46;24.58;;;7.32;;
24483;SDS011;12643;51.620;7.548;2023-02-02T02:32:36;17.40;;;7.60;;
24483;SDS011;12643;51.620;7.548;2023-02-02T02:35:09;27.83;;;8.00;;
24483;SDS011;12643;51.620;7.548;2023-02-02T02:37:44;25.83;;;8.32;;
24483;SDS011;12643;51.620;7.548;2023-02-02T02:40:18;29.77;;;9.23;;
24483;SDS011;12643;51.620;7.548;2023-02-02T02:42:54;31.17;;;9.75;;
24483;SDS011;12643;51.620;7.548;2023-02-02T02:45:25;27.35;;;8.82;;
24483;SDS011;12643;51.620;7.548;2023-02-02T02:47:56;24.05;;;8.82;;
24483;SDS011;12643;51.620;7.548;2023-02-02T02:50:25;27.58;;;10.10;;
24483;SDS011;12643;51.620;7.548;2023-02-02T02:52:55;38.20;;;11.18;;
24483;SDS011;12643;51.620;7.548;2023-02-02T02:55:26;29.55;;;9.15;;
24483;SDS011;12643;51.620;7.548;2023-02-02T02:58:06;26.48;;;9.40;;
24483;SDS011;12643;51.620;7.548;2023-02-02T03:00:52;33.80;;;9.25;;
24483;SDS011;12643;51.620;7.548;2023-02-02T03:03:30;28.38;;;9.98;;
24483;SDS011;12643;51.620;7.548;2023-02-02T03:06:19;23.42;;;9.07;;
24483;SDS011;12643;51.620;7.548;2023-02-02T03:08:51;23.85;;;9.10;;
24483;SDS011;12643;51.620;7.548;2023-02-02T03:11:25;30.08;;;8.23;;
24483;SDS011;12643;51.620;7.548;2023-02-02T03:13:55;27.23;;;9.13;;
24483;SDS011;12643;51.620;7.548;2023-02-02T03:16:24;27.83;;;9.98;;
24483;SDS011;12643;51.620;7.548;2023-02-02T03:18:54;30.75;;;9.82;;
24483;SDS011;12643;51.620;7.548;2023-02-02T03:21:22;32.03;;;9.77;;
24483;SDS011;12643;51.620;7.548;2023-02-02T03:23:50;30.52;;;10.63;;
24483;SDS011;12643;51.620;7.548;2023-02-02T03:26:19;22.35;;;7.93;;
24483;SDS011;12643;51.620;7.548;2023-02-02T03:28:47;26.80;;;9.95;;
24483;SDS011;12643;51.620;7.548;2023-02-02T03:31:17;34.58;;;9.45;;
24483;SDS011;12643;51.620;7.548;2023-02-02T03:33:45;28.13;;;9.27;;
24483;SDS011;12643;51.620;7.548;2023-02-02T03:36:16;30.33;;;8.25;;
24483;SDS011;12643;51.620;7.548;2023-02-02T03:38:44;29.45;;;8.15;;
24483;SDS011;12643;51.620;7.548;2023-02-02T03:41:12;29.95;;;9.70;;
24483;SDS011;12643;51.620;7.548;2023-02-02T03:43:41;29.98;;;8.85;;
24483;SDS011;12643;51.620;7.548;2023-02-02T03:46:10;31.70;;;10.13;;
24483;SDS011;12643;51.620;7.548;2023-02-02T03:48:38;29.70;;;8.25;;
24483;SDS011;12643;51.620;7.548;2023-02-02T03:51:07;27.00;;;8.77;;
24483;SDS011;12643;51.620;7.548;2023-02-02T03:53:39;28.95;;;8.00;;
24483;SDS011;12643;51.620;7.548;2023-02-02T03:56:09;38.15;;;10.35;;
24483;SDS011;12643;51.620;7.548;2023-02-02T03:58:37;31.95;;;8.32;;
24483;SDS011;12643;51.620;7.548;2023-02-02T04:01:08;30.83;;;8.15;;
24483;SDS011;12643;51.620;7.548;2023-02-02T04:03:38;32.63;;;7.47;;
24483;SDS011;12643;51.620;7.548;2023-02-02T04:06:07;25.13;;;8.27;;
24483;SDS011;12643;51.620;7.548;2023-02-02T04:08:35;28.13;;;7.07;;
24483;SDS011;12643;51.620;7.548;2023-02-02T04:11:05;35.22;;;8.38;;
24483;SDS011;12643;51.620;7.548;2023-02-02T04:13:36;27.00;;;6.30;;
24483;SDS011;12643;51.620;7.548;2023-02-02T04:16:05;21.15;;;5.88;;
24483;SDS011;12643;51.620;7.548;2023-02-02T04:18:33;29.73;;;6.63;;
24483;SDS011;12643;51.620;7.548;2023-02-02T04:21:03;15.95;;;4.90;;
24483;SDS011;12643;51.620;7.548;2023-02-02T04:23:31;17.70;;;4.80;;
24483;SDS011;12643;51.620;7.548;2023-02-02T04:25:59;19.63;;;4.93;;
24483;SDS011;12643;51.620;7.548;2023-02-02T04:28:29;18.50;;;5.90;;
24483;SDS011;12643;51.620;7.548;2023-02-02T04:30:57;20.25;;;5.63;;
24483;SDS011;12643;51.620;7.548;2023-02-02T04:33:26;24.38;;;6.28;;
24483;SDS011;12643;51.620;7.548;2023-02-02T04:35:55;23.33;;;5.80;;
24483;SDS011;12643;51.620;7.548;2023-02-02T04:38:23;25.67;;;5.32;;
24483;SDS011;12643;51.620;7.548;2023-02-02T04:40:51;25.10;;;5.45;;
24483;SDS011;12643;51.620;7.548;2023-02-02T04:43:21;21.53;;;4.90;;
24483;SDS011;12643;51.620;7.548;2023-02-02T04:45:55;23.65;;;5.90;;
24483;SDS011;12643;51.620;7.548;2023-02-02T04:48:23;19.90;;;4.93;;
24483;SDS011;12643;51.620;7.548;2023-02-02T04:50:56;23.35;;;5.90;;
24483;SDS011;12643;51.620;7.548;2023-02-02T04:53:25;20.45;;;5.45;;
24483;SDS011;12643;51.620;7.548;2023-02-02T04:55:54;20.00;;;5.03;;
24483;SDS011;12643;51.620;7.548;2023-02-02T04:58:23;17.27;;;6.05;;
24483;SDS011;12643;51.620;7.548;2023-02-02T05:00:51;13.55;;;5.32;;
24483;SDS011;12643;51.620;7.548;2023-02-02T05:03:21;16.48;;;5.43;;
24483;SDS011;12643;51.620;7.548;2023-02-02T05:05:49;20.17;;;5.53;;
24483;SDS011;12643;51.620;7.548;2023-02-02T05:08:17;23.83;;;6.47;;
24483;SDS011;12643;51.620;7.548;2023-02-02T05:10:45;16.42;;;5.78;;
24483;SDS011;12643;51.620;7.548;2023-02-02T05:13:14;23.92;;;8.13;;
24483;SDS011;12643;51.620;7.548;2023-02-02T05:15:43;20.50;;;8.23;;
24483;SDS011;12643;51.620;7.548;2023-02-02T05:18:11;18.13;;;6.75;;
24483;SDS011;12643;51.620;7.548;2023-02-02T05:20:41;21.83;;;8.15;;
24483;SDS011;12643;51.620;7.548;2023-02-02T05:23:09;28.73;;;9.65;;
24483;SDS011;12643;51.620;7.548;2023-02-02T05:25:37;24.45;;;9.68;;
24483;SDS011;12643;51.620;7.548;2023-02-02T05:28:05;25.45;;;9.50;;
24483;SDS011;12643;51.620;7.548;2023-02-02T05:30:33;32.67;;;9.75;;
24483;SDS011;12643;51.620;7.548;2023-02-02T05:33:01;24.10;;;10.57;;
24483;SDS011;12643;51.620;7.548;2023-02-02T05:35:29;30.95;;;11.15;;
24483;SDS011;12643;51.620;7.548;2023-02-02T05:37:59;36.42;;;12.18;;
24483;SDS011;12643;51.620;7.548;2023-02-02T05:40:27;34.10;;;13.50;;
24483;SDS011;12643;51.620;7.548;2023-02-02T05:42:55;35.55;;;13.13;;
24483;SDS011;12643;51.620;7.548;2023-02-02T05:45:24;31.90;;;15.07;;
24483;SDS011;12643;51.620;7.548;2023-02-02T05:47:52;51.83;;;18.25;;
24483;SDS011;12643;51.620;7.548;2023-02-02T05:50:21;42.72;;;18.05;;
24483;SDS011;12643;51.620;7.548;2023-02-02T05:52:49;45.17;;;16.45;;
24483;SDS011;12643;51.620;7.548;2023-02-02T05:55:19;39.33;;;16.90;;
24483;SDS011;12643;51.620;7.548;2023-02-02T05:57:47;40.55;;;16.63;;
24483;SDS011;12643;51.620;7.548;2023-02-02T06:00:15;54.47;;;18.35;;
24483;SDS011;12643;51.620;7.548;2023-02-02T06:02:44;44.00;;;17.50;;
24483;SDS011;12643;51.620;7.548;2023-02-02T06:05:12;58.60;;;19.17;;
24483;SDS011;12643;51.620;7.548;2023-02-02T06:07:41;48.00;;;18.05;;
24483;SDS011;12643;51.620;7.548;2023-02-02T06:10:09;50.03;;;16.85;;
24483;SDS011;12643;51.620;7.548;2023-02-02T06:12:38;45.70;;;16.60;;
24483;SDS011;12643;51.620;7.548;2023-02-02T06:15:07;41.03;;;15.65;;
24483;SDS011;12643;51.620;7.548;2023-02-02T06:17:36;49.60;;;16.90;;
24483;SDS011;12643;51.620;7.548;2023-02-02T06:20:04;41.85;;;14.80;;
24483;SDS011;12643;51.620;7.548;2023-02-02T06:22:33;33.83;;;12.88;;
24483;SDS011;12643;51.620;7.548;2023-02-02T06:25:02;50.92;;;15.55;;
24483;SDS011;12643;51.620;7.548;2023-02-02T06:27:32;46.25;;;14.70;;
24483;SDS011;12643;51.620;7.548;2023-02-02T06:30:02;54.67;;;15.70;;
24483;SDS011;12643;51.620;7.548;2023-02-02T06:32:30;42.60;;;14.73;;
24483;SDS011;12643;51.620;7.548;2023-02-02T06:34:58;39.38;;;14.48;;
24483;SDS011;12643;51.620;7.548;2023-02-02T06:37:26;45.08;;;15.00;;
24483;SDS011;12643;51.620;7.548;2023-02-02T06:39:54;56.30;;;14.13;;
24483;SDS011;12643;51.620;7.548;2023-02-02T06:42:24;35.30;;;13.13;;
24483;SDS011;12643;51.620;7.548;2023-02-02T06:44:52;35.08;;;12.95;;
24483;SDS011;12643;51.620;7.548;2023-02-02T06:47:22;41.50;;;13.88;;
24483;SDS011;12643;51.620;7.548;2023-02-02T06:49:50;38.20;;;13.68;;
24483;SDS011;12643;51.620;7.548;2023-02-02T06:52:18;48.28;;;13.63;;
24483;SDS011;12643;51.620;7.548;2023-02-02T06:54:46;43.00;;;14.90;;
24483;SDS011;12643;51.620;7.548;2023-02-02T06:57:15;36.80;;;12.35;;
24483;SDS011;12643;51.620;7.548;2023-02-02T06:59:44;38.28;;;13.10;;
24483;SDS011;12643;51.620;7.548;2023-02-02T07:02:12;32.45;;;12.40;;
24483;SDS011;12643;51.620;7.548;2023-02-02T07:04:42;30.17;;;12.05;;
24483;SDS011;12643;51.620;7.548;2023-02-02T07:07:10;37.08;;;14.27;;
24483;SDS011;12643;51.620;7.548;2023-02-02T07:09:39;37.13;;;13.50;;
24483;SDS011;12643;51.620;7.548;2023-02-02T07:12:07;31.65;;;12.20;;
24483;SDS011;12643;51.620;7.548;2023-02-02T07:14:36;43.53;;;12.63;;
24483;SDS011;12643;51.620;7.548;2023-02-02T07:17:04;35.58;;;11.90;;
24483;SDS011;12643;51.620;7.548;2023-02-02T07:19:34;37.67;;;12.18;;
24483;SDS011;12643;51.620;7.548;2023-02-02T07:22:06;39.03;;;13.02;;
24483;SDS011;12643;51.620;7.548;2023-02-02T07:24:34;43.30;;;14.40;;
24483;SDS011;12643;51.620;7.548;2023-02-02T07:27:03;38.50;;;14.13;;
24483;SDS011;12643;51.620;7.548;2023-02-02T07:29:31;39.97;;;13.38;;
24483;SDS011;12643;51.620;7.548;2023-02-02T07:31:59;40.20;;;14.60;;
24483;SDS011;12643;51.620;7.548;2023-02-02T07:34:28;37.92;;;13.38;;
24483;SDS011;12643;51.620;7.548;2023-02-02T07:36:56;40.38;;;14.68;;
24483;SDS011;12643;51.620;7.548;2023-02-02T07:39:27;35.67;;;14.40;;
24483;SDS011;12643;51.620;7.548;2023-02-02T07:41:55;42.42;;;14.20;;
24483;SDS011;12643;51.620;7.548;2023-02-02T07:44:23;35.60;;;14.48;;
24483;SDS011;12643;51.620;7.548;2023-02-02T07:46:52;50.90;;;15.32;;
24483;SDS011;12643;51.620;7.548;2023-02-02T07:49:20;34.33;;;14.48;;
24483;SDS011;12643;51.620;7.548;2023-02-02T07:51:48;40.88;;;15.52;;
24483;SDS011;12643;51.620;7.548;2023-02-02T07:54:16;51.85;;;15.07;;
24483;SDS011;12643;51.620;7.548;2023-02-02T07:56:45;46.20;;;16.23;;
24483;SDS011;12643;51.620;7.548;2023-02-02T07:59:14;42.15;;;15.85;;
24483;SDS011;12643;51.620;7.548;2023-02-02T08:01:42;38.30;;;14.20;;
24483;SDS011;12643;51.620;7.548;2023-02-02T08:04:12;41.40;;;15.45;;
24483;SDS011;12643;51.620;7.548;2023-02-02T08:06:40;40.15;;;16.10;;
24483;SDS011;12643;51.620;7.548;2023-02-02T08:09:08;45.20;;;15.02;;
24483;SDS011;12643;51.620;7.548;2023-02-02T08:11:36;38.85;;;14.73;;
24483;SDS011;12643;51.620;7.548;2023-02-02T08:14:06;35.17;;;14.18;;
24483;SDS011;12643;51.620;7.548;2023-02-02T08:16:37;33.08;;;13.73;;
24483;SDS011;12643;51.620;7.548;2023-02-02T08:19:05;41.03;;;13.68;;
24483;SDS011;12643;51.620;7.548;2023-02-02T08:21:34;38.33;;;14.27;;
24483;SDS011;12643;51.620;7.548;2023-02-02T08:24:02;44.60;;;14.82;;
24483;SDS011;12643;51.620;7.548;2023-02-02T08:26:30;33.75;;;13.48;;
24483;SDS011;12643;51.620;7.548;2023-02-02T08:28:59;33.80;;;14.02;;
24483;SDS011;12643;51.620;7.548;2023-02-02T08:31:32;30.27;;;13.85;;
24483;SDS011;12643;51.620;7.548;2023-02-02T08:34:02;40.30;;;14.23;;
24483;SDS011;12643;51.620;7.548;2023-02-02T08:36:31;47.00;;;14.98;;
24483;SDS011;12643;51.620;7.548;2023-02-02T08:39:00;42.42;;;13.70;;
24483;SDS011;12643;51.620;7.548;2023-02-02T08:41:29;34.80;;;13.70;;
24483;SDS011;12643;51.620;7.548;2023-02-02T08:43:58;31.65;;;13.13;;
24483;SDS011;12643;51.620;7.548;2023-02-02T08:46:27;40.33;;;13.48;;
24483;SDS011;12643;51.620;7.548;2023-02-02T08:48:56;31.33;;;14.98;;
24483;SDS011;12643;51.620;7.548;2023-02-02T08:51:25;31.55;;;12.48;;
24483;SDS011;12643;51.620;7.548;2023-02-02T08:53:53;34.03;;;13.48;;
24483;SDS011;12643;51.620;7.548;2023-02-02T08:56:21;33.88;;;13.00;;
24483;SDS011;12643;51.620;7.548;2023-02-02T08:58:50;35.80;;;14.02;;
24483;SDS011;12643;51.620;7.548;2023-02-02T09:01:21;32.67;;;12.93;;
24483;SDS011;12643;51.620;7.548;2023-02-02T09:03:52;34.72;;;13.43;;
24483;SDS011;12643;51.620;7.548;2023-02-02T09:06:23;24.67;;;12.77;;
24483;SDS011;12643;51.620;7.548;2023-02-02T09:08:54;26.48;;;12.27;;
24483;SDS011;12643;51.620;7.548;2023-02-02T09:11:22;32.90;;;14.43;;
24483;SDS011;12643;51.620;7.548;2023-02-02T09:13:52;29.02;;;12.30;;
24483;SDS011;12643;51.620;7.548;2023-02-02T09:16:21;28.33;;;11.50;;
24483;SDS011;12643;51.620;7.548;2023-02-02T09:18:51;28.75;;;13.10;;
24483;SDS011;12643;51.620;7.548;2023-02-02T09:21:19;28.10;;;12.80;;
24483;SDS011;12643;51.620;7.548;2023-02-02T09:23:49;27.50;;;12.95;;
24483;SDS011;12643;51.620;7.548;2023-02-02T09:26:19;42.55;;;12.93;;
24483;SDS011;12643;51.620;7.548;2023-02-02T09:28:50;38.80;;;12.45;;
24483;SDS011;12643;51.620;7.548;2023-02-02T09:31:21;31.95;;;13.95;;
24483;SDS011;12643;51.620;7.548;2023-02-02T09:33:50;26.60;;;11.55;;
24483;SDS011;12643;51.620;7.548;2023-02-02T09:36:19;20.83;;;10.90;;
24483;SDS011;12643;51.620;7.548;2023-02-02T09:38:49;21.30;;;12.30;;
24483;SDS011;12643;51.620;7.548;2023-02-02T09:44:14;22.60;;;11.30;;
24483;SDS011;12643;51.620;7.548;2023-02-02T09:46:47;21.55;;;9.80;;
24483;SDS011;12643;51.620;7.548;2023-02-02T09:49:25;18.88;;;10.70;;
24483;SDS011;12643;51.620;7.548;2023-02-02T09:52:02;24.42;;;11.65;;
24483;SDS011;12643;51.620;7.548;2023-02-02T09:54:39;22.75;;;10.32;;
24483;SDS011;12643;51.620;7.548;2023-02-02T09:57:11;25.30;;;11.02;;
24483;SDS011;12643;51.620;7.548;2023-02-02T09:59:43;20.23;;;9.98;;
24483;SDS011;12643;51.620;7.548;2023-02-02T10:02:15;24.23;;;10.57;;
24483;SDS011;12643;51.620;7.548;2023-02-02T10:04:49;26.13;;;10.65;;
24483;SDS011;12643;51.620;7.548;2023-02-02T10:07:23;23.67;;;9.88;;
24483;SDS011;12643;51.620;7.548;2023-02-02T10:09:57;22.15;;;10.00;;
24483;SDS011;12643;51.620;7.548;2023-02-02T10:12:30;22.88;;;9.88;;
24483;SDS011;12643;51.620;7.548;2023-02-02T10:15:03;23.58;;;9.75;;
24483;SDS011;12643;51.620;7.548;2023-02-02T10:17:40;18.48;;;8.88;;
24483;SDS011;12643;51.620;7.548;2023-02-02T10:20:16;13.15;;;8.95;;
24483;SDS011;12643;51.620;7.548;2023-02-02T10:23:02;16.60;;;9.27;;
24483;SDS011;12643;51.620;7.548;2023-02-02T10:25:37;18.30;;;8.77;;
24483;SDS011;12643;51.620;7.548;2023-02-02T10:28:18;16.73;;;9.30;;
24483;SDS011;12643;51.620;7.548;2023-02-02T10:30:54;19.83;;;9.60;;
24483;SDS011;12643;51.620;7.548;2023-02-02T10:33:28;15.63;;;9.77;;
24483;SDS011;12643;51.620;7.548;2023-02-02T10:36:05;17.13;;;9.40;;
24483;SDS011;12643;51.620;7.548;2023-02-02T10:38:43;14.45;;;9.43;;
24483;SDS011;12643;51.620;7.548;2023-02-02T10:41:19;17.42;;;10.50;;
24483;SDS011;12643;51.620;7.548;2023-02-02T10:46:44;16.38;;;9.57;;
24483;SDS011;12643;51.620;7.548;2023-02-02T10:49:17;23.05;;;10.48;;
24483;SDS011;12643;51.620;7.548;2023-02-02T10:51:51;24.13;;;11.30;;
24483;SDS011;12643;51.620;7.548;2023-02-02T10:54:28;22.30;;;11.70;;
24483;SDS011;12643;51.620;7.548;2023-02-02T10:57:03;25.40;;;11.82;;
24483;SDS011;12643;51.620;7.548;2023-02-02T10:59:37;29.30;;;12.88;;
24483;SDS011;12643;51.620;7.548;2023-02-02T11:02:13;24.73;;;13.60;;
24483;SDS011;12643;51.620;7.548;2023-02-02T11:04:41;28.55;;;13.40;;
24483;SDS011;12643;51.620;7.548;2023-02-02T11:07:27;28.08;;;14.05;;
24483;SDS011;12643;51.620;7.548;2023-02-02T11:09:57;26.08;;;15.20;;
24483;SDS011;12643;51.620;7.548;2023-02-02T11:12:27;30.73;;;15.00;;
24483;SDS011;12643;51.620;7.548;2023-02-02T11:14:59;28.38;;;13.75;;
24483;SDS011;12643;51.620;7.548;2023-02-02T11:17:30;24.33;;;13.90;;
24483;SDS011;12643;51.620;7.548;2023-02-02T11:19:59;24.48;;;13.93;;
24483;SDS011;12643;51.620;7.548;2023-02-02T11:22:29;27.73;;;15.18;;
24483;SDS011;12643;51.620;7.548;2023-02-02T11:25:03;34.45;;;14.63;;
24483;SDS011;12643;51.620;7.548;2023-02-02T11:27:32;30.08;;;13.50;;
24483;SDS011;12643;51.620;7.548;2023-02-02T11:30:10;33.42;;;16.00;;
24483;SDS011;12643;51.620;7.548;2023-02-02T11:32:54;39.17;;;14.68;;
24483;SDS011;12643;51.620;7.548;2023-02-02T11:35:22;33.38;;;16.13;;
24483;SDS011;12643;51.620;7.548;2023-02-02T11:38:07;29.13;;;14.60;;
24483;SDS011;12643;51.620;7.548;2023-02-02T11:40:57;34.45;;;16.08;;
24483;SDS011;12643;51.620;7.548;2023-02-02T11:43:29;27.05;;;13.55;;
24483;SDS011;12643;51.620;7.548;2023-02-02T11:46:01;31.58;;;14.40;;
24483;SDS011;12643;51.620;7.548;2023-02-02T11:48:31;28.83;;;14.52;;
24483;SDS011;12643;51.620;7.548;2023-02-02T11:51:02;32.85;;;15.43;;
24483;SDS011;12643;51.620;7.548;2023-02-02T11:53:33;36.00;;;14.83;;
24483;SDS011;12643;51.620;7.548;2023-02-02T11:56:08;32.60;;;13.45;;
24483;SDS011;12643;51.620;7.548;2023-02-02T11:58:48;34.55;;;14.65;;
24483;SDS011;12643;51.620;7.548;2023-02-02T12:01:23;43.10;;;15.95;;
24483;SDS011;12643;51.620;7.548;2023-02-02T12:03:53;34.55;;;15.90;;
24483;SDS011;12643;51.620;7.548;2023-02-02T12:06:22;36.92;;;14.50;;
24483;SDS011;12643;51.620;7.548;2023-02-02T12:08:52;39.15;;;15.32;;
24483;SDS011;12643;51.620;7.548;2023-02-02T12:11:28;36.70;;;13.15;;
24483;SDS011;12643;51.620;7.548;2023-02-02T12:14:07;29.85;;;14.05;;
24483;SDS011;12643;51.620;7.548;2023-02-02T12:16:47;28.13;;;12.88;;
24483;SDS011;12643;51.620;7.548;2023-02-02T12:19:25;29.98;;;12.60;;
24483;SDS011;12643;51.620;7.548;2023-02-02T12:22:21;32.00;;;14.65;;
24483;SDS011;12643;51.620;7.548;2023-02-02T12:24:58;32.78;;;13.55;;
24483;SDS011;12643;51.620;7.548;2023-02-02T12:27:38;28.73;;;12.57;;
24483;SDS011;12643;51.620;7.548;2023-02-02T12:30:25;33.85;;;13.63;;
24483;SDS011;12643;51.620;7.548;2023-02-02T12:33:05;28.92;;;12.77;;
24483;SDS011;12643;51.620;7.548;2023-02-02T12:35:49;36.10;;;14.32;;
24483;SDS011;12643;51.620;7.548;2023-02-02T12:38:33;36.33;;;15.60;;
24483;SDS011;12643;51.620;7.548;2023-02-02T12:41:22;39.67;;;14.85;;
24483;SDS011;12643;51.620;7.548;2023-02-02T12:44:04;38.17;;;15.15;;
24483;SDS011;12643;51.620;7.548;2023-02-02T12:46:48;36.08;;;13.52;;
24483;SDS011;12643;51.620;7.548;2023-02-02T12:49:34;35.15;;;12.30;;
24483;SDS011;12643;51.620;7.548;2023-02-02T12:52:18;41.03;;;14.18;;
24483;SDS011;12643;51.620;7.548;2023-02-02T12:55:00;33.15;;;12.52;;
24483;SDS011;12643;51.620;7.548;2023-02-02T12:57:42;35.65;;;12.73;;
24483;SDS011;12643;51.620;7.548;2023-02-02T13:06:11;34.85;;;14.13;;
24483;SDS011;12643;51.620;7.548;2023-02-02T13:09:00;29.38;;;12.30;;
24483;SDS011;12643;51.620;7.548;2023-02-02T13:11:34;35.70;;;12.82;;
24483;SDS011;12643;51.620;7.548;2023-02-02T13:14:07;27.20;;;12.02;;
24483;SDS011;12643;51.620;7.548;2023-02-02T13:16:38;27.75;;;12.18;;
24483;SDS011;12643;51.620;7.548;2023-02-02T13:19:14;30.95;;;12.45;;
24483;SDS011;12643;51.620;7.548;2023-02-02T13:21:53;38.92;;;12.40;;
24483;SDS011;12643;51.620;7.548;2023-02-02T13:24:25;33.47;;;12.25;;
24483;SDS011;12643;51.620;7.548;2023-02-02T13:26:57;27.88;;;11.70;;
24483;SDS011;12643;51.620;7.548;2023-02-02T13:29:29;44.70;;;13.53;;
24483;SDS011;12643;51.620;7.548;2023-02-02T13:32:01;29.30;;;13.70;;
24483;SDS011;12643;51.620;7.548;2023-02-02T13:34:40;35.15;;;13.88;;
24483;SDS011;12643;51.620;7.548;2023-02-02T13:37:12;36.45;;;13.45;;
24483;SDS011;12643;51.620;7.548;2023-02-02T13:39:46;32.47;;;15.20;;
24483;SDS011;12643;51.620;7.548;2023-02-02T13:42:21;33.33;;;13.77;;
24483;SDS011;12643;51.620;7.548;2023-02-02T13:48:23;38.47;;;15.40;;
24483;SDS011;12643;51.620;7.548;2023-02-02T13:51:05;34.97;;;16.85;;
24483;SDS011;12643;51.620;7.548;2023-02-02T13:54:01;42.85;;;18.20;;
24483;SDS011;12643;51.620;7.548;2023-02-02T13:56:43;30.45;;;16.10;;
24483;SDS011;12643;51.620;7.548;2023-02-02T14:02:17;35.20;;;15.35;;
24483;SDS011;12643;51.620;7.548;2023-02-02T14:04:53;37.65;;;16.33;;
24483;SDS011;12643;51.620;7.548;2023-02-02T14:07:29;40.35;;;18.38;;
24483;SDS011;12643;51.620;7.548;2023-02-02T14:10:04;39.40;;;17.15;;
24483;SDS011;12643;51.620;7.548;2023-02-02T14:12:45;36.75;;;17.73;;
24483;SDS011;12643;51.620;7.548;2023-02-02T14:15:13;37.95;;;17.25;;
24483;SDS011;12643;51.620;7.548;2023-02-02T14:17:52;31.90;;;17.50;;
24483;SDS011;12643;51.620;7.548;2023-02-02T14:26:43;35.17;;;19.52;;
24483;SDS011;12643;51.620;7.548;2023-02-02T14:38:10;39.30;;;19.90;;
24483;SDS011;12643;51.620;7.548;2023-02-02T14:40:46;41.22;;;21.38;;
24483;SDS011;12643;51.620;7.548;2023-02-02T14:43:22;34.90;;;20.38;;
24483;SDS011;12643;51.620;7.548;2023-02-02T14:46:24;35.38;;;20.17;;
24483;SDS011;12643;51.620;7.548;2023-02-02T14:49:07;41.22;;;19.58;;
24483;SDS011;12643;51.620;7.548;2023-02-02T14:51:49;29.55;;;20.00;;
24483;SDS011;12643;51.620;7.548;2023-02-02T14:54:24;39.05;;;20.90;;
24483;SDS011;12643;51.620;7.548;2023-02-02T14:56:58;36.30;;;21.17;;
24483;SDS011;12643;51.620;7.548;2023-02-02T14:59:32;32.97;;;20.67;;
24483;SDS011;12643;51.620;7.548;2023-02-02T15:02:07;40.75;;;20.38;;
24483;SDS011;12643;51.620;7.548;2023-02-02T15:04:41;38.25;;;19.58;;
24483;SDS011;12643;51.620;7.548;2023-02-02T15:10:04;37.58;;;18.77;;
24483;SDS011;12643;51.620;7.548;2023-02-02T15:12:35;35.22;;;18.08;;
24483;SDS011;12643;51.620;7.548;2023-02-02T15:15:15;35.67;;;17.90;;
24483;SDS011;12643;51.620;7.548;2023-02-02T15:20:35;35.75;;;18.92;;
24483;SDS011;12643;51.620;7.548;2023-02-02T15:23:15;29.75;;;19.83;;
24483;SDS011;12643;51.620;7.548;2023-02-02T15:25:50;29.80;;;19.08;;
24483;SDS011;12643;51.620;7.548;2023-02-02T15:28:21;35.45;;;20.88;;
24483;SDS011;12643;51.620;7.548;2023-02-02T15:30:55;25.13;;;18.15;;
24483;SDS011;12643;51.620;7.548;2023-02-02T15:33:27;38.83;;;19.05;;
24483;SDS011;12643;51.620;7.548;2023-02-02T15:35:58;35.58;;;22.20;;
24483;SDS011;12643;51.620;7.548;2023-02-02T15:38:31;37.72;;;20.95;;
24483;SDS011;12643;51.620;7.548;2023-02-02T15:41:04;28.50;;;19.42;;
24483;SDS011;12643;51.620;7.548;2023-02-02T15:43:38;36.97;;;22.00;;
24483;SDS011;12643;51.620;7.548;2023-02-02T15:46:10;36.83;;;21.98;;
24483;SDS011;12643;51.620;7.548;2023-02-02T15:51:42;33.97;;;20.92;;